sensor_id;sensor_type;location;lat;lon;timestamp;pressure;altitude;pressure_sealevel;temperature;humidity
83236;BME280;73121;51.828;-3.098;2023-10-08T00:01:32;101408.85;;;8.20;34.71
83236;BME280;73121;51.828;-3.098;2023-10-08T00:03:58;101407.94;;;6.25;35.47
83236;BME280;73121;51.828;-3.098;2023-10-08T00:06:24;101411.83;;;5.99;36.73
83236;BME280;73121;51.828;-3.098;2023-10-08T00:08:49;101405.28;;;7.10;35.74
83236;BME280;73121;51.828;-3.098;2023-10-08T00:11:14;101409.20;;;8.00;36.13
83236;BME280;73121;51.828;-3.098;2023-10-08T00:13:39;101410.64;;;8.96;34.93
83236;BME280;73121;51.828;-3.098;2023-10-08T00:16:04;101400.75;;;8.74;34.25
83236;BME280;73121;51.828;-3.098;2023-10-08T00:18:29;101404.64;;;7.97;36.18
83236;BME280;73121;51.828;-3.098;2023-10-08T00:20:55;101406.01;;;5.51;38.47
83236;BME280;73121;51.828;-3.098;2023-10-08T00:23:20;101412.80;;;8.90;36.43
83236;BME280;73121;51.828;-3.098;2023-10-08T00:25:46;101410.54;;;8.21;35.10
83236;BME280;73121;51.828;-3.098;2023-10-08T00:28:11;101412.36;;;6.85;35.76
83236;BME280;73121;51.828;-3.098;2023-10-08T00:30:38;101413.36;;;8.07;34.67
83236;BME280;73121;51.828;-3.098;2023-10-08T00:33:02;101407.69;;;8.10;36.54
83236;BME280;73121;51.828;-3.098;2023-10-08T00:35:27;101412.69;;;7.08;37.67
83236;BME280;73121;51.828;-3.098;2023-10-08T00:37:53;101410.38;;;7.22;37.28
83236;BME280;73121;51.828;-3.098;2023-10-08T00:40:18;101411.33;;;5.04;38.82
83236;BME280;73121;51.828;-3.098;2023-10-08T00:42:43;101416.82;;;5.13;40.18
83236;BME280;73121;51.828;-3.098;2023-10-08T00:45:09;101415.62;;;6.60;39.84
83236;BME280;73121;51.828;-3.098;2023-10-08T00:47:34;101408.51;;;3.61;43.18
83236;BME280;73121;51.828;-3.098;2023-10-08T00:49:59;101411.14;;;5.22;41.90
83236;BME280;73121;51.828;-3.098;2023-10-08T00:52:24;101411.09;;;5.04;41.06
83236;BME280;73121;51.828;-3.098;2023-10-08T00:54:49;101414.55;;;5.07;42.38
83236;BME280;73121;51.828;-3.098;2023-10-08T00:57:16;101415.66;;;5.25;43.37
83236;BME280;73121;51.828;-3.098;2023-10-08T00:59:40;101415.89;;;4.49;43.79
83236;BME280;73121;51.828;-3.098;2023-10-08T01:02:05;101413.73;;;6.43;41.80
83236;BME280;73121;51.828;-3.098;2023-10-08T01:04:31;101409.55;;;4.34;42.99
83236;BME280;73121;51.828;-3.098;2023-10-08T01:06:57;101413.19;;;4.09;44.07
83236;BME280;73121;51.828;-3.098;2023-10-08T01:09:21;101411.34;;;6.27;41.37
83236;BME280;73121;51.828;-3.098;2023-10-08T01:12:06;101405.68;;;6.52;40.24
83236;BME280;73121;51.828;-3.098;2023-10-08T01:14:12;101408.55;;;7.83;39.75
83236;BME280;73121;51.828;-3.098;2023-10-08T01:16:37;101412.37;;;4.90;41.82
83236;BME280;73121;51.828;-3.098;2023-10-08T01:19:02;101408.63;;;6.18;40.75
83236;BME280;73121;51.828;-3.098;2023-10-08T01:21:28;101414.17;;;4.85;41.27
83236;BME280;73121;51.828;-3.098;2023-10-08T01:23:53;101416.03;;;5.98;40.89
83236;BME280;73121;51.828;-3.098;2023-10-08T01:26:20;101418.01;;;5.22;40.71
83236;BME280;73121;51.828;-3.098;2023-10-08T01:28:43;101418.64;;;5.09;42.73
83236;BME280;73121;51.828;-3.098;2023-10-08T01:31:09;101418.98;;;5.84;43.27
83236;BME280;73121;51.828;-3.098;2023-10-08T01:33:34;101415.90;;;5.21;43.39
83236;BME280;73121;51.828;-3.098;2023-10-08T01:35:59;101419.09;;;5.40;44.52
83236;BME280;73121;51.828;-3.098;2023-10-08T01:38:24;101414.87;;;4.60;43.95
83236;BME280;73121;51.828;-3.098;2023-10-08T01:40:50;101409.88;;;4.00;44.67
83236;BME280;73121;51.828;-3.098;2023-10-08T01:43:15;101403.10;;;7.11;39.75
83236;BME280;73121;51.828;-3.098;2023-10-08T01:45:40;101401.78;;;8.17;38.36
83236;BME280;73121;51.828;-3.098;2023-10-08T01:48:06;101408.18;;;6.52;42.00
83236;BME280;73121;51.828;-3.098;2023-10-08T01:50:31;101409.08;;;6.47;41.42
83236;BME280;73121;51.828;-3.098;2023-10-08T01:52:56;101407.63;;;5.43;42.33
83236;BME280;73121;51.828;-3.098;2023-10-08T01:55:22;101406.55;;;6.93;41.43
83236;BME280;73121;51.828;-3.098;2023-10-08T01:57:49;101406.68;;;6.99;40.23
83236;BME280;73121;51.828;-3.098;2023-10-08T02:00:13;101406.36;;;4.57;44.48
83236;BME280;73121;51.828;-3.098;2023-10-08T02:02:37;101407.66;;;5.21;42.16
83236;BME280;73121;51.828;-3.098;2023-10-08T02:05:03;101404.62;;;7.25;38.09
83236;BME280;73121;51.828;-3.098;2023-10-08T02:07:28;101404.45;;;5.06;40.92
83236;BME280;73121;51.828;-3.098;2023-10-08T02:09:54;101399.59;;;6.90;38.57
83236;BME280;73121;51.828;-3.098;2023-10-08T02:12:19;101405.08;;;9.13;35.37
83236;BME280;73121;51.828;-3.098;2023-10-08T02:14:44;101406.39;;;8.65;36.10
83236;BME280;73121;51.828;-3.098;2023-10-08T02:17:10;101407.37;;;6.38;37.18
83236;BME280;73121;51.828;-3.098;2023-10-08T02:19:35;101408.01;;;7.04;36.07
83236;BME280;73121;51.828;-3.098;2023-10-08T02:22:01;101405.94;;;8.61;35.99
83236;BME280;73121;51.828;-3.098;2023-10-08T02:24:26;101402.99;;;7.64;36.67
83236;BME280;73121;51.828;-3.098;2023-10-08T02:26:52;101402.92;;;7.68;38.24
83236;BME280;73121;51.828;-3.098;2023-10-08T02:29:17;101413.44;;;5.68;41.76
83236;BME280;73121;51.828;-3.098;2023-10-08T02:31:42;101415.90;;;6.07;40.33
83236;BME280;73121;51.828;-3.098;2023-10-08T02:34:08;101413.34;;;6.07;41.48
83236;BME280;73121;51.828;-3.098;2023-10-08T02:36:33;101412.68;;;6.05;42.60
83236;BME280;73121;51.828;-3.098;2023-10-08T02:38:58;101411.46;;;6.04;42.09
83236;BME280;73121;51.828;-3.098;2023-10-08T02:41:23;101409.04;;;5.56;42.67
83236;BME280;73121;51.828;-3.098;2023-10-08T02:43:49;101407.73;;;4.27;44.63
83236;BME280;73121;51.828;-3.098;2023-10-08T02:46:14;101405.99;;;5.87;41.92
83236;BME280;73121;51.828;-3.098;2023-10-08T02:48:39;101399.47;;;7.21;40.51
83236;BME280;73121;51.828;-3.098;2023-10-08T02:51:05;101399.53;;;7.75;38.61
83236;BME280;73121;51.828;-3.098;2023-10-08T02:53:30;101400.63;;;7.03;38.83
83236;BME280;73121;51.828;-3.098;2023-10-08T02:55:55;101401.05;;;8.77;37.93
83236;BME280;73121;51.828;-3.098;2023-10-08T02:58:20;101402.67;;;8.62;36.30
83236;BME280;73121;51.828;-3.098;2023-10-08T03:00:47;101399.90;;;8.59;36.96
83236;BME280;73121;51.828;-3.098;2023-10-08T03:03:11;101395.28;;;8.07;37.12
83236;BME280;73121;51.828;-3.098;2023-10-08T03:05:36;101399.34;;;4.58;41.54
83236;BME280;73121;51.828;-3.098;2023-10-08T03:08:02;101395.06;;;4.46;42.31
83236;BME280;73121;51.828;-3.098;2023-10-08T03:10:27;101386.09;;;7.07;39.20
83236;BME280;73121;51.828;-3.098;2023-10-08T03:12:52;101388.33;;;8.23;37.03
83236;BME280;73121;51.828;-3.098;2023-10-08T03:15:17;101388.67;;;8.37;36.39
83236;BME280;73121;51.828;-3.098;2023-10-08T03:17:42;101397.27;;;8.51;36.28
83236;BME280;73121;51.828;-3.098;2023-10-08T03:20:08;101391.21;;;8.79;35.93
83236;BME280;73121;51.828;-3.098;2023-10-08T03:22:33;101390.68;;;9.18;34.95
83236;BME280;73121;51.828;-3.098;2023-10-08T03:24:58;101386.66;;;6.41;36.94
83236;BME280;73121;51.828;-3.098;2023-10-08T03:27:23;101390.04;;;6.53;37.72
83236;BME280;73121;51.828;-3.098;2023-10-08T03:29:49;101386.32;;;5.80;38.91
83236;BME280;73121;51.828;-3.098;2023-10-08T03:32:14;101386.91;;;6.40;38.71
83236;BME280;73121;51.828;-3.098;2023-10-08T03:34:39;101387.80;;;7.61;36.50
83236;BME280;73121;51.828;-3.098;2023-10-08T03:37:04;101384.90;;;6.55;37.75
83236;BME280;73121;51.828;-3.098;2023-10-08T03:39:30;101382.36;;;6.75;38.11
83236;BME280;73121;51.828;-3.098;2023-10-08T03:41:55;101386.74;;;4.13;41.58
83236;BME280;73121;51.828;-3.098;2023-10-08T03:44:20;101376.10;;;5.89;39.15
83236;BME280;73121;51.828;-3.098;2023-10-08T03:46:46;101381.44;;;7.33;36.80
83236;BME280;73121;51.828;-3.098;2023-10-08T03:49:12;101373.51;;;6.87;37.19
83236;BME280;73121;51.828;-3.098;2023-10-08T03:51:37;101369.70;;;9.17;35.33
83236;BME280;73121;51.828;-3.098;2023-10-08T03:54:02;101364.54;;;7.59;35.80
83236;BME280;73121;51.828;-3.098;2023-10-08T03:56:28;101364.37;;;5.44;38.62
83236;BME280;73121;51.828;-3.098;2023-10-08T03:58:52;101364.63;;;7.94;35.62
83236;BME280;73121;51.828;-3.098;2023-10-08T04:01:18;101362.90;;;5.82;39.10
83236;BME280;73121;51.828;-3.098;2023-10-08T04:03:43;101363.59;;;3.42;40.71
83236;BME280;73121;51.828;-3.098;2023-10-08T04:06:08;101357.92;;;8.52;35.81
83236;BME280;73121;51.828;-3.098;2023-10-08T04:08:34;101354.63;;;8.87;35.92
83236;BME280;73121;51.828;-3.098;2023-10-08T04:10:59;101352.48;;;9.02;35.86
83236;BME280;73121;51.828;-3.098;2023-10-08T04:13:24;101353.96;;;9.31;34.75
83236;BME280;73121;51.828;-3.098;2023-10-08T04:15:49;101357.95;;;5.68;40.52
83236;BME280;73121;51.828;-3.098;2023-10-08T04:18:14;101353.38;;;7.81;36.61
83236;BME280;73121;51.828;-3.098;2023-10-08T04:20:40;101348.06;;;8.07;38.36
83236;BME280;73121;51.828;-3.098;2023-10-08T04:23:06;101348.57;;;8.51;36.80
83236;BME280;73121;51.828;-3.098;2023-10-08T04:25:32;101347.76;;;9.39;36.11
83236;BME280;73121;51.828;-3.098;2023-10-08T04:27:56;101351.75;;;9.69;35.84
83236;BME280;73121;51.828;-3.098;2023-10-08T04:30:21;101346.22;;;8.91;35.88
83236;BME280;73121;51.828;-3.098;2023-10-08T04:32:46;101346.94;;;9.14;35.97
83236;BME280;73121;51.828;-3.098;2023-10-08T04:35:12;101352.06;;;8.99;36.32
83236;BME280;73121;51.828;-3.098;2023-10-08T04:37:37;101347.26;;;8.76;35.91
83236;BME280;73121;51.828;-3.098;2023-10-08T04:40:03;101347.85;;;9.37;36.19
83236;BME280;73121;51.828;-3.098;2023-10-08T04:42:27;101346.95;;;9.05;36.20
83236;BME280;73121;51.828;-3.098;2023-10-08T04:44:53;101340.87;;;7.95;36.45
83236;BME280;73121;51.828;-3.098;2023-10-08T04:47:18;101341.65;;;8.73;36.65
83236;BME280;73121;51.828;-3.098;2023-10-08T04:49:44;101334.02;;;8.88;36.70
83236;BME280;73121;51.828;-3.098;2023-10-08T04:52:09;101334.23;;;9.09;36.55
83236;BME280;73121;51.828;-3.098;2023-10-08T04:54:34;101334.79;;;8.10;37.35
83236;BME280;73121;51.828;-3.098;2023-10-08T04:57:00;101336.37;;;8.49;36.43
83236;BME280;73121;51.828;-3.098;2023-10-08T04:59:25;101335.47;;;9.58;35.76
83236;BME280;73121;51.828;-3.098;2023-10-08T05:01:50;101336.77;;;9.37;36.23
83236;BME280;73121;51.828;-3.098;2023-10-08T05:04:16;101335.97;;;8.94;36.68
83236;BME280;73121;51.828;-3.098;2023-10-08T05:06:41;101337.18;;;10.20;36.42
83236;BME280;73121;51.828;-3.098;2023-10-08T05:09:09;101335.11;;;9.23;36.88
83236;BME280;73121;51.828;-3.098;2023-10-08T05:11:32;101333.72;;;7.79;37.50
83236;BME280;73121;51.828;-3.098;2023-10-08T05:13:57;101332.75;;;7.85;37.62
83236;BME280;73121;51.828;-3.098;2023-10-08T05:16:23;101337.55;;;9.05;37.06
83236;BME280;73121;51.828;-3.098;2023-10-08T05:18:48;101336.99;;;8.98;37.49
83236;BME280;73121;51.828;-3.098;2023-10-08T05:21:14;101331.32;;;8.34;38.38
83236;BME280;73121;51.828;-3.098;2023-10-08T05:23:39;101330.28;;;8.85;37.88
83236;BME280;73121;51.828;-3.098;2023-10-08T05:26:05;101328.75;;;8.78;38.81
83236;BME280;73121;51.828;-3.098;2023-10-08T05:28:30;101330.90;;;6.98;40.24
83236;BME280;73121;51.828;-3.098;2023-10-08T05:30:55;101330.17;;;7.25;39.77
83236;BME280;73121;51.828;-3.098;2023-10-08T05:33:21;101331.24;;;8.79;37.93
83236;BME280;73121;51.828;-3.098;2023-10-08T05:35:47;101336.48;;;6.29;40.35
83236;BME280;73121;51.828;-3.098;2023-10-08T05:38:13;101338.20;;;7.65;38.65
83236;BME280;73121;51.828;-3.098;2023-10-08T05:40:37;101340.90;;;8.12;38.36
83236;BME280;73121;51.828;-3.098;2023-10-08T05:43:02;101347.46;;;7.46;39.82
83236;BME280;73121;51.828;-3.098;2023-10-08T05:45:30;101345.45;;;8.68;38.28
83236;BME280;73121;51.828;-3.098;2023-10-08T05:47:53;101347.40;;;7.13;39.95
83236;BME280;73121;51.828;-3.098;2023-10-08T05:50:19;101349.24;;;7.76;38.54
83236;BME280;73121;51.828;-3.098;2023-10-08T05:52:45;101351.34;;;8.17;38.49
83236;BME280;73121;51.828;-3.098;2023-10-08T05:55:09;101357.01;;;8.99;37.61
83236;BME280;73121;51.828;-3.098;2023-10-08T05:57:34;101363.49;;;8.23;38.24
83236;BME280;73121;51.828;-3.098;2023-10-08T06:00:00;101375.72;;;3.66;43.54
83236;BME280;73121;51.828;-3.098;2023-10-08T06:02:26;101374.72;;;5.74;41.16
83236;BME280;73121;51.828;-3.098;2023-10-08T06:04:50;101378.40;;;7.49;39.31
83236;BME280;73121;51.828;-3.098;2023-10-08T06:07:16;101377.89;;;7.76;38.95
83236;BME280;73121;51.828;-3.098;2023-10-08T06:09:41;101371.44;;;7.48;38.01
83236;BME280;73121;51.828;-3.098;2023-10-08T06:12:06;101374.30;;;8.54;38.02
83236;BME280;73121;51.828;-3.098;2023-10-08T06:14:32;101374.72;;;8.17;37.90
83236;BME280;73121;51.828;-3.098;2023-10-08T06:16:57;101378.31;;;8.76;37.47
83236;BME280;73121;51.828;-3.098;2023-10-08T06:19:23;101384.79;;;6.10;40.01
83236;BME280;73121;51.828;-3.098;2023-10-08T06:21:48;101386.63;;;7.58;38.56
83236;BME280;73121;51.828;-3.098;2023-10-08T06:24:13;101386.78;;;7.44;38.57
83236;BME280;73121;51.828;-3.098;2023-10-08T06:26:39;101385.50;;;7.46;38.10
83236;BME280;73121;51.828;-3.098;2023-10-08T06:29:04;101387.24;;;9.18;36.90
83236;BME280;73121;51.828;-3.098;2023-10-08T06:31:29;101386.35;;;8.67;39.73
83236;BME280;73121;51.828;-3.098;2023-10-08T06:33:55;101382.73;;;6.57;43.85
83236;BME280;73121;51.828;-3.098;2023-10-08T06:36:20;101381.98;;;5.21;46.49
83236;BME280;73121;51.828;-3.098;2023-10-08T06:38:46;101380.22;;;5.41;46.34
83236;BME280;73121;51.828;-3.098;2023-10-08T06:41:12;101379.79;;;5.79;44.68
83236;BME280;73121;51.828;-3.098;2023-10-08T06:43:36;101377.20;;;6.94;42.36
83236;BME280;73121;51.828;-3.098;2023-10-08T06:46:01;101372.46;;;7.38;41.28
83236;BME280;73121;51.828;-3.098;2023-10-08T06:48:27;101373.74;;;7.87;40.19
83236;BME280;73121;51.828;-3.098;2023-10-08T06:50:53;101369.67;;;7.85;39.99
83236;BME280;73121;51.828;-3.098;2023-10-08T06:53:17;101368.10;;;7.09;42.19
83236;BME280;73121;51.828;-3.098;2023-10-08T06:55:42;101369.23;;;6.03;43.53
83236;BME280;73121;51.828;-3.098;2023-10-08T06:58:08;101376.05;;;5.03;43.47
83236;BME280;73121;51.828;-3.098;2023-10-08T07:00:34;101386.72;;;3.79;44.71
83236;BME280;73121;51.828;-3.098;2023-10-08T07:02:58;101393.95;;;6.77;41.27
83236;BME280;73121;51.828;-3.098;2023-10-08T07:05:23;101403.90;;;6.48;42.38
83236;BME280;73121;51.828;-3.098;2023-10-08T07:07:49;101409.95;;;6.68;41.82
83236;BME280;73121;51.828;-3.098;2023-10-08T07:10:14;101417.55;;;6.62;42.19
83236;BME280;73121;51.828;-3.098;2023-10-08T07:12:40;101419.86;;;6.63;42.09
83236;BME280;73121;51.828;-3.098;2023-10-08T07:15:06;101414.06;;;6.43;41.28
83236;BME280;73121;51.828;-3.098;2023-10-08T07:17:31;101415.93;;;6.92;40.63
83236;BME280;73121;51.828;-3.098;2023-10-08T07:19:56;101419.92;;;7.82;40.41
83236;BME280;73121;51.828;-3.098;2023-10-08T07:22:21;101418.98;;;7.04;40.01
83236;BME280;73121;51.828;-3.098;2023-10-08T07:24:46;101418.05;;;7.55;39.33
83236;BME280;73121;51.828;-3.098;2023-10-08T07:27:12;101419.27;;;7.50;39.42
83236;BME280;73121;51.828;-3.098;2023-10-08T07:29:37;101417.46;;;7.80;38.92
83236;BME280;73121;51.828;-3.098;2023-10-08T07:32:03;101416.72;;;7.91;39.08
83236;BME280;73121;51.828;-3.098;2023-10-08T07:34:27;101412.23;;;8.01;38.75
83236;BME280;73121;51.828;-3.098;2023-10-08T07:36:55;101406.52;;;8.19;38.85
83236;BME280;73121;51.828;-3.098;2023-10-08T07:39:19;101407.75;;;8.08;38.66
83236;BME280;73121;51.828;-3.098;2023-10-08T07:41:43;101414.43;;;7.60;38.60
83236;BME280;73121;51.828;-3.098;2023-10-08T07:44:08;101424.00;;;6.66;39.42
83236;BME280;73121;51.828;-3.098;2023-10-08T07:46:34;101428.05;;;6.70;39.66
83236;BME280;73121;51.828;-3.098;2023-10-08T07:49:00;101426.50;;;8.79;38.63
83236;BME280;73121;51.828;-3.098;2023-10-08T07:51:25;101422.82;;;8.41;39.25
83236;BME280;73121;51.828;-3.098;2023-10-08T07:53:51;101418.39;;;8.02;39.49
83236;BME280;73121;51.828;-3.098;2023-10-08T07:56:16;101415.48;;;6.71;40.85
83236;BME280;73121;51.828;-3.098;2023-10-08T07:58:41;101415.29;;;8.50;39.65
83236;BME280;73121;51.828;-3.098;2023-10-08T08:01:07;101416.54;;;9.60;38.05
83236;BME280;73121;51.828;-3.098;2023-10-08T08:03:32;101419.59;;;6.42;41.74
83236;BME280;73121;51.828;-3.098;2023-10-08T08:05:57;101427.97;;;3.79;45.97
83236;BME280;73121;51.828;-3.098;2023-10-08T08:08:22;101426.35;;;5.26;44.87
83236;BME280;73121;51.828;-3.098;2023-10-08T08:10:49;101426.32;;;4.78;44.60
83236;BME280;73121;51.828;-3.098;2023-10-08T08:13:13;101425.29;;;7.79;41.67
83236;BME280;73121;51.828;-3.098;2023-10-08T08:15:39;101424.50;;;8.20;40.37
83236;BME280;73121;51.828;-3.098;2023-10-08T08:18:05;101427.51;;;8.19;39.31
83236;BME280;73121;51.828;-3.098;2023-10-08T08:20:30;101432.13;;;8.65;38.52
83236;BME280;73121;51.828;-3.098;2023-10-08T08:22:55;101437.82;;;7.46;39.78
83236;BME280;73121;51.828;-3.098;2023-10-08T08:25:20;101437.20;;;8.40;39.53
83236;BME280;73121;51.828;-3.098;2023-10-08T08:27:45;101436.52;;;7.46;40.22
83236;BME280;73121;51.828;-3.098;2023-10-08T08:30:11;101438.22;;;6.89;41.58
83236;BME280;73121;51.828;-3.098;2023-10-08T08:32:36;101432.91;;;7.06;41.79
83236;BME280;73121;51.828;-3.098;2023-10-08T08:35:01;101432.50;;;8.76;39.27
83236;BME280;73121;51.828;-3.098;2023-10-08T08:37:26;101432.55;;;9.31;38.58
83236;BME280;73121;51.828;-3.098;2023-10-08T08:39:52;101435.57;;;9.13;38.05
83236;BME280;73121;51.828;-3.098;2023-10-08T08:42:21;101429.36;;;8.13;38.71
83236;BME280;73121;51.828;-3.098;2023-10-08T08:44:44;101426.58;;;9.34;36.68
83236;BME280;73121;51.828;-3.098;2023-10-08T08:47:09;101425.99;;;10.49;35.91
83236;BME280;73121;51.828;-3.098;2023-10-08T08:49:35;101427.66;;;9.26;35.72
83236;BME280;73121;51.828;-3.098;2023-10-08T08:51:58;101427.97;;;10.37;36.40
83236;BME280;73121;51.828;-3.098;2023-10-08T08:54:23;101432.64;;;10.54;36.25
83236;BME280;73121;51.828;-3.098;2023-10-08T08:56:49;101440.20;;;9.92;38.53
83236;BME280;73121;51.828;-3.098;2023-10-08T08:59:14;101435.55;;;9.32;40.28
83236;BME280;73121;51.828;-3.098;2023-10-08T09:01:40;101437.59;;;10.86;38.02
83236;BME280;73121;51.828;-3.098;2023-10-08T09:04:05;101436.42;;;10.57;38.17
83236;BME280;73121;51.828;-3.098;2023-10-08T09:06:30;101428.40;;;11.04;37.67
83236;BME280;73121;51.828;-3.098;2023-10-08T09:08:55;101424.79;;;10.74;37.19
83236;BME280;73121;51.828;-3.098;2023-10-08T09:11:21;101422.64;;;10.78;37.38
83236;BME280;73121;51.828;-3.098;2023-10-08T09:13:46;101429.90;;;10.65;37.52
83236;BME280;73121;51.828;-3.098;2023-10-08T09:16:12;101431.47;;;9.59;38.52
83236;BME280;73121;51.828;-3.098;2023-10-08T09:18:37;101437.97;;;10.28;38.79
83236;BME280;73121;51.828;-3.098;2023-10-08T09:21:09;101444.11;;;8.89;39.62
83236;BME280;73121;51.828;-3.098;2023-10-08T09:23:29;101448.04;;;10.08;38.54
83236;BME280;73121;51.828;-3.098;2023-10-08T09:25:53;101448.95;;;10.71;37.53
83236;BME280;73121;51.828;-3.098;2023-10-08T09:28:19;101449.68;;;10.44;37.07
83236;BME280;73121;51.828;-3.098;2023-10-08T09:30:44;101451.83;;;12.13;35.39
83236;BME280;73121;51.828;-3.098;2023-10-08T09:33:11;101451.58;;;11.62;35.39
83236;BME280;73121;51.828;-3.098;2023-10-08T09:35:35;101450.51;;;11.54;35.56
83236;BME280;73121;51.828;-3.098;2023-10-08T09:38:02;101451.85;;;11.11;35.97
83236;BME280;73121;51.828;-3.098;2023-10-08T09:40:26;101452.82;;;10.69;35.79
83236;BME280;73121;51.828;-3.098;2023-10-08T09:42:52;101446.54;;;12.70;34.42
83236;BME280;73121;51.828;-3.098;2023-10-08T09:45:17;101437.27;;;11.72;35.97
83236;BME280;73121;51.828;-3.098;2023-10-08T09:47:47;101433.10;;;12.19;35.56
83236;BME280;73121;51.828;-3.098;2023-10-08T09:50:10;101429.42;;;11.61;34.22
83236;BME280;73121;51.828;-3.098;2023-10-08T09:52:37;101427.19;;;12.12;34.29
83236;BME280;73121;51.828;-3.098;2023-10-08T09:55:00;101426.14;;;12.85;33.74
83236;BME280;73121;51.828;-3.098;2023-10-08T09:57:23;101421.14;;;13.14;34.21
83236;BME280;73121;51.828;-3.098;2023-10-08T09:59:49;101422.46;;;14.65;31.74
83236;BME280;73121;51.828;-3.098;2023-10-08T10:02:14;101420.19;;;12.86;33.45
83236;BME280;73121;51.828;-3.098;2023-10-08T10:04:42;101428.91;;;12.68;33.56
83236;BME280;73121;51.828;-3.098;2023-10-08T10:07:09;101427.41;;;12.91;33.64
83236;BME280;73121;51.828;-3.098;2023-10-08T10:09:31;101425.71;;;12.56;33.64
83236;BME280;73121;51.828;-3.098;2023-10-08T10:11:54;101431.88;;;12.67;33.24
83236;BME280;73121;51.828;-3.098;2023-10-08T10:14:22;101430.95;;;13.12;33.70
83236;BME280;73121;51.828;-3.098;2023-10-08T10:16:48;101431.20;;;12.63;33.49
83236;BME280;73121;51.828;-3.098;2023-10-08T10:19:16;101433.52;;;13.27;33.29
83236;BME280;73121;51.828;-3.098;2023-10-08T10:21:36;101434.96;;;13.83;32.54
83236;BME280;73121;51.828;-3.098;2023-10-08T10:24:01;101433.01;;;14.60;32.85
83236;BME280;73121;51.828;-3.098;2023-10-08T10:26:28;101428.13;;;13.72;33.72
83236;BME280;73121;51.828;-3.098;2023-10-08T10:29:23;101425.72;;;12.98;34.06
83236;BME280;73121;51.828;-3.098;2023-10-08T10:31:18;101423.14;;;13.97;34.50
83236;BME280;73121;51.828;-3.098;2023-10-08T10:33:42;101424.81;;;13.93;33.59
83236;BME280;73121;51.828;-3.098;2023-10-08T10:36:08;101428.70;;;13.31;33.96
83236;BME280;73121;51.828;-3.098;2023-10-08T10:38:33;101426.89;;;12.42;35.06
83236;BME280;73121;51.828;-3.098;2023-10-08T10:40:58;101427.63;;;13.35;33.96
83236;BME280;73121;51.828;-3.098;2023-10-08T10:43:24;101425.04;;;14.47;33.78
83236;BME280;73121;51.828;-3.098;2023-10-08T10:45:49;101427.37;;;14.63;33.11
83236;BME280;73121;51.828;-3.098;2023-10-08T10:48:14;101426.17;;;14.40;33.27
83236;BME280;73121;51.828;-3.098;2023-10-08T10:50:39;101419.96;;;14.01;34.17
83236;BME280;73121;51.828;-3.098;2023-10-08T10:53:04;101427.58;;;14.58;33.86
83236;BME280;73121;51.828;-3.098;2023-10-08T10:55:29;101434.44;;;14.02;33.35
83236;BME280;73121;51.828;-3.098;2023-10-08T10:57:56;101428.36;;;14.38;33.08
83236;BME280;73121;51.828;-3.098;2023-10-08T11:00:20;101429.04;;;14.15;34.41
83236;BME280;73121;51.828;-3.098;2023-10-08T11:02:45;101431.08;;;13.83;33.66
83236;BME280;73121;51.828;-3.098;2023-10-08T11:05:10;101436.28;;;15.27;32.65
83236;BME280;73121;51.828;-3.098;2023-10-08T11:07:35;101434.47;;;14.35;32.96
83236;BME280;73121;51.828;-3.098;2023-10-08T11:10:00;101436.91;;;15.06;33.28
83236;BME280;73121;51.828;-3.098;2023-10-08T11:12:25;101437.30;;;14.77;33.47
83236;BME280;73121;51.828;-3.098;2023-10-08T11:14:50;101433.73;;;15.14;34.28
83236;BME280;73121;51.828;-3.098;2023-10-08T11:17:18;101427.26;;;15.60;33.55
83236;BME280;73121;51.828;-3.098;2023-10-08T11:19:42;101421.99;;;15.36;34.13
83236;BME280;73121;51.828;-3.098;2023-10-08T11:22:06;101420.55;;;15.12;33.79
83236;BME280;73121;51.828;-3.098;2023-10-08T11:24:33;101424.68;;;16.46;32.92
83236;BME280;73121;51.828;-3.098;2023-10-08T11:26:57;101421.21;;;15.17;33.88
83236;BME280;73121;51.828;-3.098;2023-10-08T11:29:22;101412.12;;;14.52;33.64
83236;BME280;73121;51.828;-3.098;2023-10-08T11:31:47;101412.41;;;15.39;33.25
83236;BME280;73121;51.828;-3.098;2023-10-08T11:34:12;101410.37;;;14.72;33.98
83236;BME280;73121;51.828;-3.098;2023-10-08T11:36:38;101407.83;;;14.59;33.40
83236;BME280;73121;51.828;-3.098;2023-10-08T11:39:10;101408.33;;;15.34;33.11
83236;BME280;73121;51.828;-3.098;2023-10-08T11:41:29;101402.01;;;15.76;33.33
83236;BME280;73121;51.828;-3.098;2023-10-08T11:43:55;101401.55;;;15.24;33.95
83236;BME280;73121;51.828;-3.098;2023-10-08T11:46:21;101397.84;;;14.64;33.99
83236;BME280;73121;51.828;-3.098;2023-10-08T11:48:45;101383.54;;;16.17;33.54
83236;BME280;73121;51.828;-3.098;2023-10-08T11:51:10;101382.21;;;15.78;34.66
83236;BME280;73121;51.828;-3.098;2023-10-08T11:53:35;101379.39;;;15.79;34.31
83236;BME280;73121;51.828;-3.098;2023-10-08T11:56:01;101377.50;;;15.71;33.43
83236;BME280;73121;51.828;-3.098;2023-10-08T11:58:25;101381.45;;;16.02;34.16
83236;BME280;73121;51.828;-3.098;2023-10-08T12:00:51;101385.76;;;15.29;34.22
83236;BME280;73121;51.828;-3.098;2023-10-08T12:03:16;101390.90;;;15.50;33.35
83236;BME280;73121;51.828;-3.098;2023-10-08T12:05:41;101386.22;;;16.89;32.60
83236;BME280;73121;51.828;-3.098;2023-10-08T12:08:06;101375.62;;;16.72;31.88
83236;BME280;73121;51.828;-3.098;2023-10-08T12:10:31;101374.53;;;15.53;32.81
83236;BME280;73121;51.828;-3.098;2023-10-08T12:12:57;101373.76;;;16.42;32.48
83236;BME280;73121;51.828;-3.098;2023-10-08T12:15:23;101369.60;;;16.83;32.03
83236;BME280;73121;51.828;-3.098;2023-10-08T12:17:48;101368.13;;;17.31;31.21
83236;BME280;73121;51.828;-3.098;2023-10-08T12:20:13;101373.89;;;15.99;31.76
83236;BME280;73121;51.828;-3.098;2023-10-08T12:22:38;101376.26;;;16.29;31.97
83236;BME280;73121;51.828;-3.098;2023-10-08T12:25:03;101371.91;;;16.06;31.78
83236;BME280;73121;51.828;-3.098;2023-10-08T12:27:29;101363.04;;;16.53;31.46
83236;BME280;73121;51.828;-3.098;2023-10-08T12:29:54;101362.02;;;17.22;32.50
83236;BME280;73121;51.828;-3.098;2023-10-08T12:32:19;101358.08;;;16.73;31.50
83236;BME280;73121;51.828;-3.098;2023-10-08T12:34:44;101360.11;;;13.38;35.26
83236;BME280;73121;51.828;-3.098;2023-10-08T12:37:09;101352.18;;;16.72;32.53